Time;durP1;ratioP1;P1;durP2;ratioP2;P2;SDS_P1;SDS_P2;PMS_P1;PMS_P2;Temp;Humidity;BMP_temperature;BMP_pressure;BME280_temperature;BME280_humidity;BME280_pressure;Samples;Min_cycle;Max_cycle;Signal;HPM_P1;HPM_P2
2023/04/21 05:01:12;;;;;;;;;8.00;6.33;;;;;12.08;54.04;64458.44;5670741;22;46074;-89
2023/04/21 05:03:38;;;;;;;;;8.33;8.00;;;;;12.02;53.75;64492.53;4986209;28;45840;-88
2023/04/21 05:06:03;;;;;;;;;7.67;7.67;;;;;12.08;53.85;64469.00;4996784;28;45533;-89
2023/04/21 05:08:31;;;;;;;;;9.67;9.67;;;;;11.92;53.96;64417.25;4996074;28;46270;-90
2023/04/21 05:10:56;;;;;;;;;7.67;7.67;;;;;11.77;54.08;64316.31;4990533;28;47243;-89
2023/04/21 05:13:21;;;;;;;;;11.00;7.67;;;;;12.12;54.02;64187.56;5004640;28;45765;-92
2023/04/21 05:15:47;;;;;;;;;8.33;8.00;;;;;11.77;54.30;64019.94;4995983;28;45477;-94
2023/04/21 05:18:12;;;;;;;;;10.00;9.00;;;;;12.10;53.91;64052.97;5000130;28;54687;-89
2023/04/21 05:20:40;;;;;;;;;6.33;6.00;;;;;12.10;54.26;63806.75;5000037;28;45479;-91
2023/04/21 05:23:06;;;;;;;;;11.00;10.00;;;;;11.89;54.45;63786.66;4993300;28;45686;-86
2023/04/21 05:25:31;;;;;;;;;10.67;9.00;;;;;11.87;54.50;63782.38;5003254;28;45514;-93
2023/04/21 05:27:57;;;;;;;;;11.67;10.00;;;;;12.02;54.40;63690.47;4997078;28;51387;-93
2023/04/21 05:30:22;;;;;;;;;10.00;8.33;;;;;11.99;54.26;63742.19;5001359;28;45497;-92
2023/04/21 05:32:47;;;;;;;;;11.33;9.33;;;;;11.96;54.59;63540.34;5006698;28;45445;-95
2023/04/21 05:35:16;;;;;;;;;12.67;10.67;;;;;12.08;54.47;63547.78;5009889;28;45163;-94
2023/04/21 05:37:42;;;;;;;;;12.00;10.00;;;;;12.11;54.70;63162.56;5009765;28;46401;-96
2023/04/21 05:40:07;;;;;;;;;11.00;11.00;;;;;11.45;54.96;62787.63;4974502;28;45874;-84
2023/04/21 05:42:33;;;;;;;;;11.00;9.67;;;;;12.12;55.10;62535.84;4994583;28;45408;-93
2023/04/21 05:44:58;;;;;;;;;9.00;9.00;;;;;12.09;55.19;62043.06;5000410;28;45584;-90
2023/04/21 05:47:23;;;;;;;;;11.67;10.00;;;;;12.15;55.80;61528.78;4998891;28;46323;-91
2023/04/21 05:49:52;;;;;;;;;13.00;12.00;;;;;12.02;55.84;61057.25;4995884;28;45457;-91
2023/04/21 05:52:18;;;;;;;;;11.00;9.00;;;;;12.08;56.10;60701.25;4992644;28;45551;-91
2023/04/21 05:54:44;;;;;;;;;12.33;10.33;;;;;11.68;56.14;59975.41;4996420;28;45433;-95
2023/04/21 05:57:09;;;;;;;;;9.67;9.67;;;;;11.93;56.21;59508.78;4993528;28;46103;-89
2023/04/21 05:59:35;;;;;;;;;10.33;10.00;;;;;11.59;56.39;59165.94;4995577;28;45459;-88
2023/04/21 06:02:01;;;;;;;;;10.33;8.67;;;;;11.78;56.40;58788.63;4990699;28;46411;-87
2023/04/21 06:04:26;;;;;;;;;9.67;7.00;;;;;11.39;56.39;57894.09;4995606;28;45478;-89
2023/04/21 06:06:51;;;;;;;;;15.00;11.00;;;;;11.80;56.47;57527.22;5002914;28;47482;-90
2023/04/21 06:09:17;;;;;;;;;13.00;11.67;;;;;11.64;56.52;57519.06;4986361;28;46225;-89
2023/04/21 06:11:42;;;;;;;;;12.00;11.33;;;;;11.57;56.67;56871.38;5006034;28;45816;-90
2023/04/21 06:14:07;;;;;;;;;10.33;10.00;;;;;11.66;56.83;56869.25;4997893;28;45984;-89
2023/04/21 06:16:33;;;;;;;;;11.00;11.00;;;;;12.19;56.84;56019.31;4995663;28;46161;-90
2023/04/21 06:18:59;;;;;;;;;12.67;11.00;;;;;12.19;57.28;55113.06;4995883;28;45602;-89
2023/04/21 06:21:24;;;;;;;;;12.00;11.33;;;;;12.16;57.07;54901.97;5002962;28;45527;-89
2023/04/21 06:23:50;;;;;;;;;14.33;12.00;;;;;12.07;57.45;54612.91;5013497;28;45773;-88
2023/04/21 06:26:16;;;;;;;;;26.33;25.00;;;;;11.91;57.14;54154.53;5016960;28;47205;-93
2023/04/21 06:28:41;;;;;;;;;15.67;15.67;;;;;11.90;57.49;53095.16;5016477;28;45510;-91
2023/04/21 06:31:08;;;;;;;;;14.67;9.67;;;;;12.06;57.85;52246.41;4985898;28;45518;-91
2023/04/21 06:33:34;;;;;;;;;11.67;10.00;;;;;12.07;57.36;53049.78;5015792;28;45514;-90
2023/04/21 06:35:59;;;;;;;;;15.00;13.00;;;;;12.06;57.57;52061.66;5002840;28;45725;-91
2023/04/21 06:38:24;;;;;;;;;13.00;13.00;;;;;12.04;57.50;51730.44;4998521;28;45605;-90
2023/04/21 06:40:50;;;;;;;;;16.00;11.00;;;;;11.95;57.37;50859.56;4980296;28;45452;-89
2023/04/21 06:43:16;;;;;;;;;15.33;12.67;;;;;11.99;57.39;50193.53;4999119;28;45897;-89
2023/04/21 06:45:41;;;;;;;;;15.67;13.00;;;;;11.74;58.12;48495.38;5008457;28;45607;-91
2023/04/21 06:48:06;;;;;;;;;14.00;13.00;;;;;11.78;58.24;47470.59;4997074;28;46242;-92
2023/04/21 06:50:32;;;;;;;;;21.00;19.00;;;;;12.04;58.51;46869.91;4995505;28;45450;-91
2023/04/21 06:52:57;;;;;;;;;17.67;14.33;;;;;12.07;58.09;45572.75;5011905;28;45401;-93
2023/04/21 06:55:22;;;;;;;;;14.67;10.67;;;;;12.19;58.25;45255.63;5005663;28;46318;-92
2023/04/21 06:57:48;;;;;;;;;15.00;12.00;;;;;12.04;58.33;44659.22;5003725;28;52105;-93
2023/04/21 07:00:14;;;;;;;;;15.00;11.67;;;;;12.34;58.26;44608.72;4978348;28;45388;-90
2023/04/21 07:02:40;;;;;;;;;15.33;14.00;;;;;12.18;57.92;44765.13;4996433;28;45422;-90
2023/04/21 07:05:13;;;;;;;;;10.67;10.67;;;;;12.20;57.89;44150.19;5000544;28;45583;-91
2023/04/21 07:07:38;;;;;;;;;14.00;14.00;;;;;12.14;58.07;41088.28;5001397;28;46776;-90
2023/04/21 07:10:04;;;;;;;;;15.00;14.33;;;;;12.15;58.55;40673.13;4982863;28;45605;-88
2023/04/21 07:12:30;;;;;;;;;12.67;11.33;;;;;12.13;58.14;41876.91;4999575;28;45511;-85
2023/04/21 07:14:55;;;;;;;;;12.33;10.00;;;;;12.51;58.16;41996.66;5005704;28;46008;-89
2023/04/21 07:17:20;;;;;;;;;12.67;12.67;;;;;12.55;58.16;41099.09;5010016;28;45597;-90
2023/04/21 07:19:45;;;;;;;;;14.33;12.00;;;;;12.48;58.10;41478.13;4994840;28;58147;-87
2023/04/21 07:22:11;;;;;;;;;11.00;11.00;;;;;12.59;57.94;40582.75;4998251;28;45570;-89
2023/04/21 07:24:36;;;;;;;;;14.00;11.67;;;;;12.71;57.86;40783.38;4994988;28;59144;-87
2023/04/21 07:27:02;;;;;;;;;11.33;9.33;;;;;12.48;57.88;40032.38;5002417;28;45452;-90
2023/04/21 07:29:27;;;;;;;;;10.33;10.33;;;;;12.61;58.18;39054.56;4997091;28;45488;-90
2023/04/21 07:31:55;;;;;;;;;14.00;11.67;;;;;12.60;57.99;38885.38;5002866;28;45656;-90
2023/04/21 07:34:20;;;;;;;;;9.67;9.67;;;;;12.81;57.85;39547.53;4999003;28;45406;-93
2023/04/21 07:36:45;;;;;;;;;6.67;5.33;;;;;12.73;57.75;39133.34;5012123;28;47101;-94
2023/04/21 07:39:11;;;;;;;;;13.67;13.67;;;;;12.77;58.05;38519.94;4999848;28;45467;-90
2023/04/21 07:41:36;;;;;;;;;10.67;8.67;;;;;12.85;57.96;39057.44;5016100;28;46895;-89
2023/04/21 07:44:01;;;;;;;;;8.33;8.33;;;;;12.85;57.75;39175.94;5013867;28;45717;-92
2023/04/21 07:46:30;;;;;;;;;9.00;9.00;;;;;12.76;57.50;40371.09;5015078;28;45422;-92
2023/04/21 07:48:56;;;;;;;;;9.67;8.00;;;;;12.48;57.99;39453.19;5004079;28;45515;-91
2023/04/21 07:51:22;;;;;;;;;12.00;12.00;;;;;12.76;58.26;38124.63;4999809;28;45462;-94
2023/04/21 07:53:50;;;;;;;;;9.00;8.33;;;;;12.78;57.89;38726.34;5002667;28;47224;-92
2023/04/21 07:56:16;;;;;;;;;11.33;11.00;;;;;12.94;58.07;36022.00;5008355;28;45499;-88
2023/04/21 07:58:41;;;;;;;;;17.00;11.67;;;;;12.95;58.02;37126.03;5001436;28;45454;-86
2023/04/21 08:01:06;;;;;;;;;8.00;8.00;;;;;12.93;57.88;37051.00;5024286;28;45518;-94
2023/04/21 08:03:32;;;;;;;;;27.00;24.67;;;;;12.98;57.85;37467.38;5021772;28;45789;-94
2023/04/21 08:05:57;;;;;;;;;14.67;13.00;;;;;13.06;57.80;37506.97;5011654;28;59334;-96
2023/04/21 08:08:22;;;;;;;;;13.67;11.33;;;;;13.09;57.53;37967.31;5022767;28;45519;-96
2023/04/21 08:10:48;;;;;;;;;9.00;8.33;;;;;12.98;57.30;38278.88;5355509;22;45642;-93
2023/04/21 08:13:13;;;;;;;;;12.00;8.67;;;;;13.04;57.14;38946.50;5044213;28;45560;-93
2023/04/21 08:15:38;;;;;;;;;11.00;8.67;;;;;13.35;56.52;40385.75;5039078;28;46211;-91
2023/04/21 08:18:07;;;;;;;;;7.67;7.33;;;;;13.37;56.56;40772.19;5038303;28;45419;-90
2023/04/21 08:20:32;;;;;;;;;9.33;8.33;;;;;13.30;56.25;40957.34;5033483;28;45917;-92
2023/04/21 08:22:58;;;;;;;;;12.00;10.67;;;;;13.47;56.09;40798.25;5032324;28;46436;-91
2023/04/21 08:25:23;;;;;;;;;11.00;7.33;;;;;13.49;56.20;40694.19;5027363;28;45376;-93
2023/04/21 08:27:48;;;;;;;;;12.00;10.67;;;;;13.48;56.02;40595.53;5038242;28;45439;-92
2023/04/21 08:30:14;;;;;;;;;10.67;10.67;;;;;13.79;55.46;42005.88;5036762;28;45309;-90
2023/04/21 08:32:39;;;;;;;;;10.33;8.33;;;;;13.86;55.36;42502.19;5046373;28;47211;-90
2023/04/21 08:35:05;;;;;;;;;13.67;10.00;;;;;13.90;55.26;42703.22;5052243;28;45324;-91
2023/04/21 08:37:31;;;;;;;;;9.67;9.67;;;;;13.75;55.00;43227.84;5036017;28;45450;-91
2023/04/21 08:39:56;;;;;;;;;11.67;11.67;;;;;13.86;54.61;44210.91;5020417;28;45627;-91
2023/04/21 08:42:21;;;;;;;;;11.67;8.33;;;;;13.98;54.66;44417.66;5037743;28;58638;-92
2023/04/21 08:44:46;;;;;;;;;8.67;7.67;;;;;14.08;54.37;44206.19;5052709;28;45546;-92
2023/04/21 08:47:22;;;;;;;;;9.67;9.67;;;;;14.06;54.56;44416.44;5041725;28;45914;-89
2023/04/21 08:49:50;;;;;;;;;7.33;7.33;;;;;13.48;54.25;44371.66;5034472;28;45574;-88
2023/04/21 08:52:18;;;;;;;;;14.00;12.00;;;;;13.19;54.31;44631.66;5036216;28;47185;-90
2023/04/21 08:54:59;;;;;;;;;11.00;9.00;;;;;13.48;54.32;44332.06;5030175;28;46699;-90
2023/04/21 08:57:24;;;;;;;;;10.33;8.33;;;;;14.58;54.04;44054.13;5038497;28;45525;-90
2023/04/21 08:59:52;;;;;;;;;8.33;6.67;;;;;14.09;53.83;43385.22;5014102;28;45557;-88
2023/04/21 09:02:27;;;;;;;;;11.00;9.00;;;;;13.63;53.83;43762.53;5028098;28;47184;-90
2023/04/21 09:04:54;;;;;;;;;11.00;10.00;;;;;14.01;53.53;44330.59;5030720;28;45379;-90
2023/04/21 09:07:33;;;;;;;;;15.00;10.00;;;;;14.95;53.57;43640.69;5025226;28;46620;-90
2023/04/21 09:09:59;;;;;;;;;10.67;10.67;;;;;15.24;53.46;42942.00;5028543;28;45535;-96
2023/04/21 09:12:26;;;;;;;;;7.00;7.00;;;;;15.66;52.87;43781.03;5030228;28;47191;-91
2023/04/21 09:14:52;;;;;;;;;5.33;5.33;;;;;15.79;52.47;44483.06;5024615;28;45427;-88
2023/04/21 09:17:22;;;;;;;;;9.33;7.33;;;;;15.80;51.12;48243.34;5028845;28;46408;-89
2023/04/21 09:19:48;;;;;;;;;7.33;7.33;;;;;15.60;51.81;47611.66;5030551;28;45484;-89
2023/04/21 09:22:15;;;;;;;;;6.67;6.33;;;;;15.77;50.87;51605.47;5025387;28;45451;-88
2023/04/21 09:24:48;;;;;;;;;5.00;5.00;;;;;15.33;50.82;51739.03;5028664;28;45548;-88
2023/04/21 09:27:15;;;;;;;;;6.33;6.33;;;;;15.60;50.67;53379.69;5027664;28;45469;-89
2023/04/21 09:29:46;;;;;;;;;7.00;6.33;;;;;15.41;50.17;54286.25;5029768;28;45665;-90
2023/04/21 09:32:17;;;;;;;;;31.67;29.33;;;;;15.17;50.58;54194.47;5031811;28;47251;-88
2023/04/21 09:34:43;;;;;;;;;8.67;8.67;;;;;14.97;50.53;54701.78;5022194;28;45478;-87
2023/04/21 09:37:10;;;;;;;;;10.33;10.00;;;;;15.20;50.18;55734.72;5022670;28;45518;-88
2023/04/21 09:39:35;;;;;;;;;9.33;9.33;;;;;15.26;50.28;55944.53;5029103;28;45525;-88
2023/04/21 09:42:01;;;;;;;;;7.33;6.67;;;;;15.08;49.87;56331.00;5028633;28;46108;-88
2023/04/21 09:44:27;;;;;;;;;5.33;5.33;;;;;15.18;50.68;56133.69;5027315;28;45474;-87
2023/04/21 09:47:12;;;;;;;;;10.33;8.67;;;;;14.74;50.63;56041.16;5025768;28;45785;-88
2023/04/21 09:49:43;;;;;;;;;9.33;8.33;;;;;15.19;50.29;56864.44;5025482;28;45823;-89
2023/04/21 09:52:10;;;;;;;;;13.33;8.33;;;;;15.19;50.21;56508.59;5029608;28;46118;-90
2023/04/21 09:54:49;;;;;;;;;6.33;6.33;;;;;14.55;50.78;56572.16;5029173;28;45314;-90
2023/04/21 09:57:23;;;;;;;;;8.67;8.67;;;;;14.57;50.71;56634.69;5035450;28;45446;-90
2023/04/21 09:59:55;;;;;;;;;8.00;7.33;;;;;15.13;50.29;56927.53;5035799;28;45438;-89
2023/04/21 10:02:24;;;;;;;;;11.67;9.33;;;;;14.09;50.43;57288.59;5036281;28;46082;-89
2023/04/21 10:04:51;;;;;;;;;6.67;6.33;;;;;14.45;50.06;57530.03;5031939;28;46715;-90
2023/04/21 10:07:16;;;;;;;;;7.00;6.67;;;;;14.44;49.95;57842.06;5034639;28;45543;-90
2023/04/21 10:09:49;;;;;;;;;12.33;9.67;;;;;14.27;49.63;58205.25;5030716;28;45510;-89
2023/04/21 10:12:16;;;;;;;;;7.67;6.33;;;;;14.56;49.50;58791.56;5035857;28;47599;-89
2023/04/21 10:17:49;;;;;;;;;1.33;1.33;;;;;14.02;49.49;59041.75;5039019;22;45438;-90
2023/04/21 10:20:14;;;;;;;;;6.67;6.67;;;;;14.60;49.78;59166.28;5033342;28;45481;-92
2023/04/21 10:23:10;;;;;;;;;8.33;7.67;;;;;15.07;49.22;59474.56;5033791;28;47028;-91
2023/04/21 10:25:48;;;;;;;;;4.67;4.67;;;;;13.72;48.77;60112.72;5035609;28;45456;-91
2023/04/21 10:28:17;;;;;;;;;6.67;6.00;;;;;14.80;49.23;60238.13;5035576;28;45442;-92
2023/04/21 10:31:20;;;;;;;;;7.00;6.33;;;;;14.00;49.53;60111.81;5034995;28;45701;-91
2023/04/21 10:34:11;;;;;;;;;6.67;6.67;;;;;15.06;49.13;60240.94;5017100;28;46314;-91
2023/04/21 10:40:17;;;;;;;;;9.33;8.33;;;;;15.08;48.99;60633.72;5028159;22;45473;-96
2023/04/21 10:45:18;;;;;;;;;7.00;7.00;;;;;14.80;48.69;61091.41;5434522;22;45397;-93
2023/04/21 10:47:48;;;;;;;;;7.67;7.67;;;;;14.47;48.53;61221.50;5010985;28;45477;-91
2023/04/21 10:50:40;;;;;;;;;9.33;9.33;;;;;15.10;48.00;61489.06;5015883;28;45422;-87
2023/04/21 10:58:17;;;;;;;;;8.33;8.00;;;;;14.23;48.26;61801.75;5674101;23;45799;-85
2023/04/21 11:12:03;;;;;;;;;8.33;8.33;;;;;14.42;47.56;62523.38;5013880;22;45566;-85
2023/04/21 11:17:13;;;;;;;;;7.00;7.00;;;;;13.89;47.71;62620.81;5020158;22;74138;-85
2023/04/21 11:19:39;;;;;;;;;10.00;9.00;;;;;14.96;47.74;62479.97;5014977;28;45490;-86
2023/04/21 11:22:07;;;;;;;;;13.67;12.67;;;;;14.54;47.13;62855.25;5013773;28;45402;-84
2023/04/21 11:25:22;;;;;;;;;10.33;8.00;;;;;15.41;47.21;63099.75;5013310;28;45621;-84
2023/04/21 11:28:41;;;;;;;;;9.00;8.33;;;;;15.57;47.26;62828.78;5013961;28;46146;-85
2023/04/21 11:31:09;;;;;;;;;8.00;8.00;;;;;14.80;47.46;62422.19;5013093;28;45630;-85
2023/04/21 11:33:44;;;;;;;;;9.33;8.67;;;;;14.72;47.51;61954.88;5013942;28;45505;-86
2023/04/21 11:36:10;;;;;;;;;9.33;8.00;;;;;14.95;47.40;61792.50;5014250;28;45659;-85
2023/04/21 11:38:44;;;;;;;;;5.00;5.00;;;;;15.64;47.29;61827.78;5013936;28;47263;-85
2023/04/21 11:41:21;;;;;;;;;8.67;7.33;;;;;15.66;47.11;61842.69;4996320;28;45629;-85
2023/04/21 11:47:15;;;;;;;;;8.00;8.00;;;;;15.62;46.74;62198.72;5162643;22;45469;-86
2023/04/21 11:50:00;;;;;;;;;9.67;8.33;;;;;15.67;45.99;62016.75;5013064;28;45733;-85
2023/04/21 11:53:03;;;;;;;;;10.33;9.00;;;;;17.06;45.50;62238.03;5014588;28;45791;-87
2023/04/21 11:55:46;;;;;;;;;8.00;8.00;;;;;16.44;45.75;62036.84;5012107;28;45554;-86
2023/04/21 11:58:15;;;;;;;;;7.33;5.00;;;;;16.27;45.45;62383.47;5013779;28;45888;-84
2023/04/21 12:03:54;;;;;;;;;11.00;8.67;;;;;17.07;45.17;62925.22;4994529;28;45526;-84
2023/04/21 12:06:25;;;;;;;;;7.33;7.33;;;;;16.41;44.84;63589.88;5004341;28;45440;-85
2023/04/21 12:09:05;;;;;;;;;6.00;6.00;;;;;16.38;44.56;63677.19;5013927;28;45710;-85
2023/04/21 12:11:53;;;;;;;;;5.00;5.00;;;;;17.27;44.52;64174.25;5006226;28;45502;-85
2023/04/21 12:14:27;;;;;;;;;8.33;7.67;;;;;16.65;44.40;64567.84;5014449;28;45524;-86
2023/04/21 12:17:24;;;;;;;;;7.33;7.33;;;;;17.22;44.27;64755.44;5017564;28;45546;-85
2023/04/21 12:19:49;;;;;;;;;7.67;6.00;;;;;16.23;44.66;64407.38;5015726;28;45533;-85
2023/04/21 12:22:30;;;;;;;;;4.33;3.00;;;;;16.72;43.38;64951.78;5013368;28;45956;-88
2023/04/21 12:28:17;;;;;;;;;5.67;5.67;;;;;17.52;43.91;65008.09;5184134;22;45476;-93
2023/04/21 12:31:32;;;;;;;;;;;;;;;;;;;;;
2023/04/21 12:42:29;;;;;;;;;7.33;7.33;;;;;16.34;43.27;66168.72;5770641;22;45522;-91
2023/04/21 12:45:00;;;;;;;;;8.67;8.67;;;;;15.94;43.51;66110.13;5014619;28;46522;-88
2023/04/21 12:50:47;;;;;;;;;7.67;7.67;;;;;16.04;43.80;66060.28;5016794;28;45528;-90
2023/04/21 12:53:48;;;;;;;;;9.33;9.00;;;;;17.19;43.41;66257.94;5019203;28;45561;-90
2023/04/21 12:59:35;;;;;;;;;7.00;7.00;;;;;16.75;43.59;66358.06;5017385;28;45375;-90
2023/04/21 13:02:04;;;;;;;;;6.33;6.00;;;;;16.27;43.06;66331.31;5017343;28;45492;-86
2023/04/21 13:04:30;;;;;;;;;7.67;7.67;;;;;16.17;43.34;66373.75;5017943;28;45952;-90
2023/04/21 13:06:55;;;;;;;;;9.00;8.00;;;;;15.86;43.40;66332.81;5023333;28;46206;-90
2023/04/21 13:12:45;;;;;;;;;5.00;5.00;;;;;16.09;43.32;66503.19;5016635;28;45450;-90
2023/04/21 13:15:11;;;;;;;;;8.67;6.33;;;;;16.53;42.95;66339.28;5017321;28;45597;-91
2023/04/21 13:17:36;;;;;;;;;10.67;10.67;;;;;16.67;43.00;66434.84;5018378;28;46475;-90
2023/04/21 13:23:10;;;;;;;;;7.00;5.33;;;;;16.78;42.75;66516.31;5009179;28;45601;-90
2023/04/21 13:25:35;;;;;;;;;7.33;7.33;;;;;17.21;42.89;66492.59;5014309;28;45565;-90
2023/04/21 13:28:25;;;;;;;;;9.33;9.33;;;;;17.63;41.77;67069.53;5016447;28;45528;-90
2023/04/21 13:30:56;;;;;;;;;8.00;8.00;;;;;17.68;42.24;67002.59;5000488;28;46013;-91
2023/04/21 13:33:22;;;;;;;;;7.67;7.67;;;;;16.54;41.88;67052.22;5003926;23;45579;-89
2023/04/21 13:36:15;;;;;;;;;7.67;7.67;;;;;17.71;42.00;67076.13;5017239;28;45411;-90
2023/04/21 13:38:57;;;;;;;;;8.00;6.00;;;;;16.75;42.23;67052.00;5000246;28;46965;-90
2023/04/21 13:41:37;;;;;;;;;9.33;7.33;;;;;17.36;42.48;66995.47;5012185;28;45473;-91
2023/04/21 13:44:05;;;;;;;;;8.33;6.67;;;;;16.53;41.91;66930.97;4995870;28;46461;-89
2023/04/21 13:46:33;;;;;;;;;10.33;8.33;;;;;16.63;41.34;66961.84;5007715;28;45571;-88
2023/04/21 13:48:58;;;;;;;;;8.00;8.00;;;;;17.02;41.25;67242.97;5009982;28;47127;-88
2023/04/21 13:51:33;;;;;;;;;9.67;6.67;;;;;17.97;40.55;67307.84;5000747;28;45482;-88
2023/04/21 13:54:07;;;;;;;;;9.67;9.00;;;;;17.88;40.74;67408.16;5016852;28;45564;-90
2023/04/21 13:56:32;;;;;;;;;14.00;11.00;;;;;17.56;40.67;67509.84;5006796;28;45917;-88
2023/04/21 13:59:10;;;;;;;;;7.67;6.33;;;;;16.94;40.28;67490.59;4979192;28;48073;-89
2023/04/21 14:01:38;;;;;;;;;9.33;7.33;;;;;17.04;41.07;67523.03;4996628;28;45391;-88
2023/04/21 14:04:09;;;;;;;;;7.67;7.67;;;;;17.00;41.07;67563.78;4997051;28;45828;-87
2023/04/21 14:06:35;;;;;;;;;9.33;8.33;;;;;17.43;41.47;67503.88;5013209;28;45757;-87
2023/04/21 14:09:00;;;;;;;;;8.67;8.67;;;;;17.09;40.96;67540.16;4998025;28;46188;-88
2023/04/21 14:11:25;;;;;;;;;10.67;9.33;;;;;17.89;40.75;67670.84;5016002;28;45334;-88
2023/04/21 14:13:56;;;;;;;;;11.00;11.00;;;;;17.07;41.27;67724.78;5014024;28;45439;-87
2023/04/21 14:16:22;;;;;;;;;9.67;7.67;;;;;16.40;40.60;67708.88;4995612;28;45625;-88
2023/04/21 14:21:55;;;;;;;;;7.67;7.67;;;;;16.62;39.48;67993.56;4986728;28;45409;-90
2023/04/21 14:24:20;;;;;;;;;11.33;8.33;;;;;17.01;40.41;67954.88;5011728;28;45336;-86
2023/04/21 14:26:46;;;;;;;;;10.67;10.33;;;;;17.57;39.70;68150.50;5015125;28;45506;-87
2023/04/21 14:29:12;;;;;;;;;6.67;6.67;;;;;17.25;40.02;68111.31;5007883;28;46168;-85
2023/04/21 14:31:37;;;;;;;;;6.00;6.00;;;;;17.24;40.20;68123.50;5006760;28;45363;-85
2023/04/21 14:34:02;;;;;;;;;8.00;8.00;;;;;16.92;40.54;68077.81;4994244;28;45461;-85
2023/04/21 14:36:28;;;;;;;;;8.67;7.00;;;;;17.75;39.71;68199.94;5011793;28;45533;-85
2023/04/21 14:38:53;;;;;;;;;7.67;7.67;;;;;17.77;40.50;68218.94;5014117;28;45921;-87
2023/04/21 14:41:18;;;;;;;;;7.67;7.67;;;;;17.77;40.39;68207.63;5006498;28;45484;-87
2023/04/21 14:43:44;;;;;;;;;10.00;7.00;;;;;17.51;40.33;68253.03;5005941;28;45650;-84
2023/04/21 14:46:09;;;;;;;;;9.00;9.00;;;;;17.55;40.85;68225.66;5011640;28;45538;-85
2023/04/21 14:48:35;;;;;;;;;6.33;6.33;;;;;17.47;40.63;68232.28;4994202;28;47142;-86
2023/04/21 14:51:00;;;;;;;;;11.33;10.00;;;;;17.30;40.40;68207.47;5009052;28;45798;-85
2023/04/21 14:53:25;;;;;;;;;7.67;7.67;;;;;17.26;40.10;68242.84;5005229;28;46027;-85
2023/04/21 14:55:52;;;;;;;;;6.00;6.00;;;;;17.15;40.46;68203.16;5001573;28;45609;-86
2023/04/21 14:58:17;;;;;;;;;6.00;6.00;;;;;17.25;40.26;68284.41;5011234;28;46071;-86
2023/04/21 15:00:43;;;;;;;;;7.67;7.67;;;;;17.13;40.29;68294.88;4998788;28;51568;-85
2023/04/21 15:03:08;;;;;;;;;6.00;6.00;;;;;17.19;39.46;68360.75;5007870;28;45476;-90
2023/04/21 15:05:35;;;;;;;;;5.00;5.00;;;;;17.38;39.98;68360.66;5006156;28;45575;-85
2023/04/21 15:08:01;;;;;;;;;5.33;5.33;;;;;16.57;39.19;68336.72;5005516;28;46345;-89
2023/04/21 15:10:26;;;;;;;;;7.33;7.33;;;;;17.07;39.65;68335.91;5011065;28;45923;-85
2023/04/21 15:12:52;;;;;;;;;7.33;7.33;;;;;17.05;39.86;68395.56;5000739;28;45461;-91
2023/04/21 15:15:18;;;;;;;;;6.00;6.00;;;;;16.87;39.89;68395.66;5006501;28;45462;-88
2023/04/21 15:17:43;;;;;;;;;8.33;6.00;;;;;17.31;39.94;68411.75;5006747;28;46629;-87
2023/04/21 15:20:09;;;;;;;;;9.00;8.00;;;;;17.36;39.28;68475.88;5004553;28;45399;-86
2023/04/21 15:22:35;;;;;;;;;6.67;6.67;;;;;17.33;39.78;68445.63;5012677;28;45510;-86
2023/04/21 15:25:00;;;;;;;;;9.00;8.00;;;;;17.42;39.71;68437.53;5001206;28;45535;-85
2023/04/21 15:27:28;;;;;;;;;7.33;7.33;;;;;17.06;39.79;68447.50;4992957;28;47020;-85
2023/04/21 15:32:28;;;;;;;;;8.67;6.00;;;;;16.37;39.48;68351.06;5015896;22;67699;-85
2023/04/21 15:34:54;;;;;;;;;8.00;8.00;;;;;16.25;39.76;68412.16;5000010;28;45532;-86
2023/04/21 15:37:20;;;;;;;;;5.67;5.67;;;;;17.55;40.04;68422.91;5005030;28;45581;-87
2023/04/21 15:39:46;;;;;;;;;4.00;4.00;;;;;17.33;39.98;68414.13;5006500;28;45495;-86
2023/04/21 15:42:11;;;;;;;;;6.00;6.00;;;;;17.59;39.43;68443.69;4998558;28;45551;-86
2023/04/21 15:44:38;;;;;;;;;5.00;5.00;;;;;16.27;38.99;68296.53;5016631;22;47022;-85
2023/04/21 15:47:25;;;;;;;;;8.00;6.00;;;;;17.59;39.94;68425.56;4999029;28;45540;-86
2023/04/21 15:49:53;;;;;;;;;7.00;7.00;;;;;16.77;39.66;68418.53;4996700;28;45527;-88
2023/04/21 15:52:18;;;;;;;;;6.00;5.33;;;;;17.15;39.31;68422.25;5000092;28;45488;-86
2023/04/21 15:54:44;;;;;;;;;7.67;6.00;;;;;16.93;39.43;68498.91;4998597;28;45397;-85
2023/04/21 15:57:23;;;;;;;;;4.33;4.33;;;;;17.15;39.82;68555.81;4988390;28;47139;-92
2023/04/21 15:59:48;;;;;;;;;6.00;5.00;;;;;16.67;39.42;68418.56;5000047;28;45517;-87
2023/04/21 16:02:14;;;;;;;;;4.00;4.00;;;;;16.71;40.04;68400.75;4997539;28;45548;-84
2023/04/21 16:04:39;;;;;;;;;5.00;5.00;;;;;16.44;39.82;68418.63;5009245;28;45490;-90
2023/04/21 16:07:13;;;;;;;;;8.33;7.33;;;;;17.04;39.37;68497.97;5008419;28;46912;-86
2023/04/21 16:10:08;;;;;;;;;7.67;7.67;;;;;16.64;39.18;68455.03;5005632;28;45371;-84
2023/04/21 16:12:35;;;;;;;;;9.00;6.00;;;;;16.77;39.50;68477.28;4965425;28;45613;-83
2023/04/21 16:15:02;;;;;;;;;6.00;6.00;;;;;16.76;39.52;68476.06;4990601;28;45674;-82
2023/04/21 16:20:04;;;;;;;;;7.00;5.33;;;;;16.82;39.71;68515.25;4999427;28;45642;-82
2023/04/21 16:22:37;;;;;;;;;10.33;8.33;;;;;17.30;39.36;68592.91;5014619;28;45415;-82
2023/04/21 16:25:12;;;;;;;;;9.33;7.33;;;;;16.25;39.36;68452.78;5017686;28;45408;-84
2023/04/21 16:28:11;;;;;;;;;5.00;5.00;;;;;17.24;39.77;68609.25;5198890;22;46229;-84
2023/04/21 16:34:20;;;;;;;;;6.33;6.33;;;;;16.65;39.24;68482.34;4972794;28;45402;-84
2023/04/21 16:36:47;;;;;;;;;7.67;7.67;;;;;16.27;39.00;68454.53;5021390;28;45645;-83
2023/04/21 16:39:13;;;;;;;;;4.00;3.00;;;;;16.62;39.31;68530.09;5028828;28;46409;-84
2023/04/21 16:41:38;;;;;;;;;8.00;5.00;;;;;16.24;39.41;68560.97;5010152;28;52346;-83
2023/04/21 16:44:03;;;;;;;;;8.67;7.67;;;;;16.12;39.33;68482.13;5021849;28;45777;-84
2023/04/21 16:46:35;;;;;;;;;4.33;4.33;;;;;16.93;39.33;68605.75;5035948;28;45472;-83
2023/04/21 16:49:03;;;;;;;;;6.67;5.00;;;;;15.76;39.34;68587.31;5036982;28;45687;-84
2023/04/21 16:51:43;;;;;;;;;6.00;6.00;;;;;15.88;39.87;68432.97;5033149;28;45533;-84
2023/04/21 16:54:09;;;;;;;;;6.00;6.00;;;;;16.93;39.59;68589.72;5022320;28;45477;-84
2023/04/21 16:56:56;;;;;;;;;5.33;4.00;;;;;16.99;39.75;68602.16;5037533;28;45473;-84
2023/04/21 16:59:37;;;;;;;;;5.00;5.00;;;;;16.57;39.45;68457.44;5036447;28;45474;-84
2023/04/21 17:02:05;;;;;;;;;8.67;7.00;;;;;15.55;39.62;68499.59;5016306;28;47202;-84
2023/04/21 17:04:30;;;;;;;;;8.67;6.00;;;;;16.00;39.66;68514.44;5036262;28;45501;-86
2023/04/21 17:06:56;;;;;;;;;7.33;4.33;;;;;17.02;39.30;68591.75;5036007;28;45530;-85
2023/04/21 17:09:24;;;;;;;;;7.33;7.33;;;;;16.86;39.57;68608.13;5036661;28;46104;-86
2023/04/21 17:11:49;;;;;;;;;7.00;7.00;;;;;16.12;39.36;68493.38;5076123;22;45808;-86
2023/04/21 17:14:14;;;;;;;;;5.00;5.00;;;;;16.96;39.60;68608.69;4997252;28;45541;-85
2023/04/21 17:16:40;;;;;;;;;6.00;6.00;;;;;16.36;39.63;68614.63;5001154;28;45567;-86
2023/04/21 17:19:05;;;;;;;;;6.33;6.33;;;;;16.79;39.12;68707.22;4997922;28;47442;-85
2023/04/21 17:21:31;;;;;;;;;6.33;6.33;;;;;16.89;39.16;68595.66;4997400;28;45413;-86
2023/04/21 17:23:56;;;;;;;;;6.00;6.00;;;;;16.63;39.51;68613.44;4994525;28;45464;-84
2023/04/21 17:26:22;;;;;;;;;6.00;5.00;;;;;16.82;39.46;68644.03;4995655;28;45439;-85
2023/04/21 17:28:53;;;;;;;;;4.33;4.33;;;;;16.85;39.38;68612.84;5001417;28;46775;-84
2023/04/21 17:31:18;;;;;;;;;6.00;6.00;;;;;16.58;39.22;68640.16;5007552;28;45486;-83
2023/04/21 17:34:07;;;;;;;;;9.00;9.00;;;;;16.81;38.50;68583.47;5003373;28;45938;-88
2023/04/21 17:36:33;;;;;;;;;3.33;3.33;;;;;16.44;38.80;68594.19;4995956;28;45586;-86
2023/04/21 17:38:58;;;;;;;;;6.67;6.67;;;;;16.75;38.90;68630.34;5000690;28;45486;-86
2023/04/21 17:44:02;;;;;;;;;7.33;6.00;;;;;15.95;39.00;68473.25;5000262;28;46675;-85
2023/04/21 17:46:48;;;;;;;;;6.00;6.00;;;;;15.37;39.20;68564.09;5005299;28;45716;-85
2023/04/21 17:54:24;;;;;;;;;7.67;7.67;;;;;15.15;38.96;68439.47;5032811;22;45511;-88
2023/04/21 17:56:50;;;;;;;;;7.00;6.00;;;;;15.94;39.27;68565.41;5009593;28;45791;-87
2023/04/21 17:59:16;;;;;;;;;5.67;5.67;;;;;16.30;39.07;68607.53;5005490;28;47242;-86